Time,TemperatureF,DewpointF,PressureIn,WindDirection,WindDirectionDegrees,WindSpeedMPH,WindSpeedGustMPH,Humidity,HourlyPrecipIn,Conditions,Clouds,dailyrainin,SolarRadiationWatts/m^2,SoftwareType,DateUTC
2013-11-12 00:03:00,8.0,3.0,-100.00,WNW,284,0.0,3.0,79,0.00,,,0.00,0.000000,,2013-11-12 06:03:00,
2013-11-12 00:13:00,8.0,3.0,-100.00,WNW,284,0.0,3.0,79,0.00,,,0.00,0.000000,,2013-11-12 06:13:00,
2013-11-12 00:42:00,7.0,2.0,-100.00,WNW,302,0.0,1.0,80,0.00,,,0.00,0.000000,,2013-11-12 06:42:00,
2013-11-12 00:52:00,7.0,2.0,-100.00,WNW,302,0.0,1.0,80,0.00,,,0.00,0.000000,,2013-11-12 06:52:00,
2013-11-12 01:02:00,7.0,2.0,-100.00,WNW,302,0.0,1.0,80,0.00,,,0.00,0.000000,,2013-11-12 07:02:00,
2013-11-12 01:11:00,7.0,2.0,-100.00,WNW,302,0.0,1.0,80,0.00,,,0.00,0.000000,,2013-11-12 07:11:00,
2013-11-12 01:42:00,6.0,1.0,-100.00,NW,312,0.0,1.0,80,0.00,,,0.00,0.000000,,2013-11-12 07:42:00,
2013-11-12 01:52:00,6.0,1.0,-100.00,NW,312,0.0,1.0,80,0.00,,,0.00,0.000000,,2013-11-12 07:52:00,
2013-11-12 02:02:00,6.0,1.0,-100.00,NW,312,0.0,1.0,80,0.00,,,0.00,0.000000,,2013-11-12 08:02:00,
2013-11-12 02:11:00,6.0,1.0,-100.00,NW,312,0.0,1.0,80,0.00,,,0.00,0.000000,,2013-11-12 08:11:00,
2013-11-12 02:42:00,5.0,0.0,-100.00,NW,314,1.0,3.0,79,0.00,,,0.00,0.000000,,2013-11-12 08:42:00,
2013-11-12 02:52:00,5.0,0.0,-100.00,NW,314,1.0,3.0,79,0.00,,,0.00,0.000000,,2013-11-12 08:52:00,
2013-11-12 03:02:00,5.0,0.0,-100.00,NW,314,1.0,3.0,79,0.00,,,0.00,0.000000,,2013-11-12 09:02:00,
2013-11-12 03:12:00,5.0,0.0,-100.00,NW,314,1.0,3.0,79,0.00,,,0.00,0.000000,,2013-11-12 09:12:00,
2013-11-12 03:42:00,5.0,0.0,-100.00,West,273,0.0,3.0,80,0.00,,,0.00,0.000000,,2013-11-12 09:42:00,
2013-11-12 03:54:00,5.0,0.0,-100.00,West,273,0.0,3.0,80,0.00,,,0.00,0.000000,,2013-11-12 09:54:00,
2013-11-12 04:03:00,5.0,0.0,-100.00,West,273,0.0,3.0,80,0.00,,,0.00,0.000000,,2013-11-12 10:03:00,
2013-11-12 04:12:00,5.0,0.0,-100.00,West,273,0.0,3.0,80,0.00,,,0.00,0.000000,,2013-11-12 10:12:00,
2013-11-12 04:53:00,4.0,-1.0,-100.00,West,277,0.0,1.0,78,0.00,,,0.00,0.000000,,2013-11-12 10:53:00,
2013-11-12 05:02:00,4.0,-1.0,-100.00,West,277,0.0,1.0,78,0.00,,,0.00,0.000000,,2013-11-12 11:02:00,
2013-11-12 05:12:00,4.0,-1.0,-100.00,West,277,0.0,1.0,78,0.00,,,0.00,0.000000,,2013-11-12 11:12:00,
2013-11-12 06:42:00,5.0,0.0,-100.00,WNW,283,0.0,2.0,80,-99.99,,,0.00,0.000000,,2013-11-12 12:42:00,
2013-11-12 06:52:00,5.0,0.0,-100.00,WNW,283,0.0,2.0,80,-99.99,,,0.00,0.000000,,2013-11-12 12:52:00,
2013-11-12 07:01:00,5.0,0.0,-100.00,WNW,283,0.0,2.0,80,-99.99,,,0.00,0.000000,,2013-11-12 13:01:00,
2013-11-12 07:11:00,5.0,0.0,-100.00,WNW,283,0.0,2.0,80,-99.99,,,0.00,0.000000,,2013-11-12 13:11:00,
2013-11-12 07:42:00,9.0,5.0,-100.00,SW,225,1.0,3.0,83,0.00,,,0.00,1.000000,,2013-11-12 13:42:00,
2013-11-12 07:52:00,9.0,5.0,-100.00,SW,225,1.0,3.0,83,0.00,,,0.00,1.000000,,2013-11-12 13:52:00,
2013-11-12 08:02:00,9.0,5.0,-100.00,SW,225,1.0,3.0,83,0.00,,,0.00,1.000000,,2013-11-12 14:02:00,
2013-11-12 08:12:00,9.0,5.0,-100.00,SW,225,1.0,3.0,83,0.00,,,0.00,1.000000,,2013-11-12 14:12:00,
2013-11-12 08:42:00,13.0,8.0,-100.00,WSW,246,2.0,5.0,79,0.00,,,0.00,28.000000,,2013-11-12 14:42:00,
2013-11-12 08:52:00,13.0,8.0,-100.00,WSW,246,2.0,5.0,79,0.00,,,0.00,28.000000,,2013-11-12 14:52:00,
2013-11-12 09:02:00,13.0,8.0,-100.00,WSW,246,2.0,5.0,79,0.00,,,0.00,28.000000,,2013-11-12 15:02:00,
2013-11-12 09:11:00,13.0,8.0,-100.00,WSW,246,2.0,5.0,79,0.00,,,0.00,28.000000,,2013-11-12 15:11:00,
2013-11-12 09:44:00,17.0,9.0,-100.00,West,262,4.0,10.0,70,0.00,,,0.00,122.000000,,2013-11-12 15:44:00,
2013-11-12 09:53:00,17.0,9.0,-100.00,West,262,4.0,10.0,70,0.00,,,0.00,122.000000,,2013-11-12 15:53:00,
2013-11-12 10:04:00,17.0,9.0,-100.00,West,262,4.0,10.0,70,0.00,,,0.00,122.000000,,2013-11-12 16:04:00,
2013-11-12 10:12:00,17.0,9.0,-100.00,West,262,4.0,10.0,70,0.00,,,0.00,122.000000,,2013-11-12 16:12:00,
2013-11-12 10:42:00,20.0,9.0,-100.00,WSW,241,6.0,11.0,63,0.00,,,0.00,312.000000,,2013-11-12 16:42:00,
2013-11-12 10:53:00,20.0,9.0,-100.00,WSW,241,6.0,11.0,63,0.00,,,0.00,312.000000,,2013-11-12 16:53:00,
2013-11-12 11:02:00,20.0,9.0,-100.00,WSW,241,6.0,11.0,63,0.00,,,0.00,312.000000,,2013-11-12 17:02:00,
2013-11-12 11:12:00,20.0,9.0,-100.00,WSW,241,6.0,11.0,63,0.00,,,0.00,312.000000,,2013-11-12 17:12:00,
2013-11-12 11:43:00,23.0,5.0,-100.00,WSW,241,6.0,12.0,45,0.00,,,0.00,417.000000,,2013-11-12 17:43:00,
2013-11-12 11:52:00,23.0,5.0,-100.00,WSW,241,6.0,12.0,45,0.00,,,0.00,417.000000,,2013-11-12 17:52:00,
2013-11-12 12:02:00,23.0,5.0,-100.00,WSW,241,6.0,12.0,45,0.00,,,0.00,417.000000,,2013-11-12 18:02:00,
2013-11-12 12:12:00,23.0,5.0,-100.00,WSW,241,6.0,12.0,45,0.00,,,0.00,417.000000,,2013-11-12 18:12:00,
2013-11-12 12:42:00,24.0,3.0,-100.00,WSW,257,8.0,15.0,39,0.00,,,0.00,449.000000,,2013-11-12 18:42:00,
2013-11-12 12:52:00,24.0,3.0,-100.00,WSW,257,8.0,15.0,39,0.00,,,0.00,449.000000,,2013-11-12 18:52:00,
2013-11-12 13:01:00,24.0,3.0,-100.00,WSW,257,8.0,15.0,39,0.00,,,0.00,449.000000,,2013-11-12 19:01:00,
2013-11-12 13:11:00,24.0,3.0,-100.00,WSW,257,8.0,15.0,39,0.00,,,0.00,449.000000,,2013-11-12 19:11:00,
2013-11-12 13:42:00,26.0,3.0,-100.00,SW,217,7.0,15.0,37,0.00,,,0.00,429.000000,,2013-11-12 19:42:00,
2013-11-12 13:52:00,26.0,3.0,-100.00,SW,217,7.0,15.0,37,0.00,,,0.00,429.000000,,2013-11-12 19:52:00,
2013-11-12 14:02:00,26.0,3.0,-100.00,SW,217,7.0,15.0,37,0.00,,,0.00,429.000000,,2013-11-12 20:02:00,
2013-11-12 14:11:00,26.0,3.0,-100.00,SW,217,7.0,15.0,37,0.00,,,0.00,429.000000,,2013-11-12 20:11:00,
2013-11-12 14:42:00,28.0,5.0,-100.00,SW,223,6.0,14.0,36,0.00,,,0.00,356.000000,,2013-11-12 20:42:00,
2013-11-12 14:52:00,28.0,5.0,-100.00,SW,223,6.0,14.0,36,0.00,,,0.00,356.000000,,2013-11-12 20:52:00,
2013-11-12 15:02:00,28.0,5.0,-100.00,SW,223,6.0,14.0,36,0.00,,,0.00,356.000000,,2013-11-12 21:02:00,
2013-11-12 15:12:00,28.0,5.0,-100.00,SW,223,6.0,14.0,36,0.00,,,0.00,356.000000,,2013-11-12 21:12:00,
2013-11-12 15:44:00,28.0,3.0,-100.00,SW,217,7.0,15.0,33,0.00,,,0.00,229.000000,,2013-11-12 21:44:00,
2013-11-12 15:54:00,28.0,3.0,-100.00,SW,217,7.0,15.0,33,0.00,,,0.00,229.000000,,2013-11-12 21:54:00,
2013-11-12 16:04:00,28.0,3.0,-100.00,SW,217,7.0,15.0,33,0.00,,,0.00,229.000000,,2013-11-12 22:04:00,
2013-11-12 16:14:00,28.0,3.0,-100.00,SW,217,7.0,15.0,33,0.00,,,0.00,229.000000,,2013-11-12 22:14:00,
2013-11-12 16:54:00,27.0,2.0,-100.00,WSW,241,4.0,13.0,34,0.00,,,0.00,76.000000,,2013-11-12 22:54:00,
2013-11-12 17:03:00,27.0,2.0,-100.00,WSW,241,4.0,13.0,34,0.00,,,0.00,76.000000,,2013-11-12 23:03:00,
2013-11-12 17:12:00,27.0,2.0,-100.00,WSW,241,4.0,13.0,34,0.00,,,0.00,76.000000,,2013-11-12 23:12:00,
2013-11-12 17:42:00,25.0,3.0,-100.00,SSW,207,3.0,13.0,38,0.00,,,0.00,9.000000,,2013-11-12 23:42:00,
2013-11-12 17:54:00,25.0,3.0,-100.00,SSW,207,3.0,13.0,38,0.00,,,0.00,9.000000,,2013-11-12 23:54:00,
2013-11-12 18:02:00,25.0,3.0,-100.00,SSW,207,3.0,13.0,38,0.00,,,0.00,9.000000,,2013-11-13 00:02:00,
2013-11-12 18:11:00,25.0,3.0,-100.00,SSW,207,3.0,13.0,38,0.00,,,0.00,9.000000,,2013-11-13 00:11:00,
2013-11-12 18:42:00,23.0,5.0,-100.00,SSW,194,3.0,5.0,45,0.00,,,0.00,0.000000,,2013-11-13 00:42:00,
2013-11-12 18:52:00,23.0,5.0,-100.00,SSW,194,3.0,5.0,45,0.00,,,0.00,0.000000,,2013-11-13 00:52:00,
2013-11-12 19:01:00,23.0,5.0,-100.00,SSW,194,3.0,5.0,45,0.00,,,0.00,0.000000,,2013-11-13 01:01:00,
2013-11-12 19:11:00,23.0,5.0,-100.00,SSW,194,3.0,5.0,45,0.00,,,0.00,0.000000,,2013-11-13 01:11:00,
2013-11-12 19:42:00,22.0,6.0,-100.00,SSW,198,3.0,6.0,49,0.00,,,0.00,0.000000,,2013-11-13 01:42:00,
2013-11-12 19:52:00,22.0,6.0,-100.00,SSW,198,3.0,6.0,49,0.00,,,0.00,0.000000,,2013-11-13 01:52:00,
2013-11-12 20:02:00,22.0,6.0,-100.00,SSW,198,3.0,6.0,49,0.00,,,0.00,0.000000,,2013-11-13 02:02:00,
2013-11-12 20:11:00,22.0,6.0,-100.00,SSW,198,3.0,6.0,49,0.00,,,0.00,0.000000,,2013-11-13 02:11:00,
2013-11-12 20:42:00,22.0,6.0,-100.00,SSW,198,3.0,8.0,50,0.00,,,0.00,0.000000,,2013-11-13 02:42:00,
2013-11-12 20:52:00,22.0,6.0,-100.00,SSW,198,3.0,8.0,50,0.00,,,0.00,0.000000,,2013-11-13 02:52:00,
2013-11-12 21:02:00,22.0,6.0,-100.00,SSW,198,3.0,8.0,50,0.00,,,0.00,0.000000,,2013-11-13 03:02:00,
2013-11-12 21:12:00,22.0,6.0,-100.00,SSW,198,3.0,8.0,50,0.00,,,0.00,0.000000,,2013-11-13 03:12:00,
2013-11-12 21:45:00,20.0,7.0,-100.00,South,186,3.0,6.0,56,0.00,,,0.00,0.000000,,2013-11-13 03:45:00,
2013-11-12 21:54:00,20.0,7.0,-100.00,South,186,3.0,6.0,56,0.00,,,0.00,0.000000,,2013-11-13 03:54:00,
2013-11-12 22:04:00,20.0,7.0,-100.00,South,186,3.0,6.0,56,0.00,,,0.00,0.000000,,2013-11-13 04:04:00,
2013-11-12 22:14:00,20.0,7.0,-100.00,South,186,3.0,6.0,56,0.00,,,0.00,0.000000,,2013-11-13 04:14:00,
2013-11-12 22:43:00,20.0,8.0,-100.00,South,172,4.0,8.0,58,0.00,,,0.00,0.000000,,2013-11-13 04:43:00,
2013-11-12 22:53:00,20.0,8.0,-100.00,South,172,4.0,8.0,58,0.00,,,0.00,0.000000,,2013-11-13 04:53:00,
2013-11-12 23:03:00,20.0,8.0,-100.00,South,172,4.0,8.0,58,0.00,,,0.00,0.000000,,2013-11-13 05:03:00,
2013-11-12 23:13:00,20.0,8.0,-100.00,South,172,4.0,8.0,58,0.00,,,0.00,0.000000,,2013-11-13 05:13:00,
2013-11-12 23:43:00,19.0,8.0,-100.00,SSW,194,3.0,7.0,61,0.00,,,0.00,0.000000,,2013-11-13 05:43:00,
2013-11-12 23:54:00,19.0,8.0,-100.00,SSW,194,3.0,7.0,61,0.00,,,0.00,0.000000,,2013-11-13 05:54:00,